Data at: 0209 UTC 20 Mar 2018

METAR for:KFOK (Westhampton/Gabreski, NY, US)
Text:KFOK 200153Z 35005KT 10SM CLR 00/M13 A2996 RMK AO2 SLP161 T00001133 $
Temperature: 0.0°C ( 32°F)
Dewpoint:-13.3°C ( 8°F) [RH = 36%]
Pressure (altimeter):29.96 inches Hg (1014.6 mb) [Sea level pressure: 1016.1 mb]
Winds:from the N (350 degrees) at 6 MPH (5 knots; 2.6 m/s)
Visibility:10 or more sm (16+ km)
Ceiling:at least 12,000 feet AGL
Clouds:sky clear below 12,000 feet AGL
QC Flag:SOME DATA ABOVE MAY BE INACCURATE!!!"$" is an indication the sensor requires maintenance.